Time;durP1;ratioP1;P1;durP2;ratioP2;P2;SDS_P1;SDS_P2;PMS_P1;PMS_P2;Temp;Humidity;BMP_temperature;BMP_pressure;BME280_temperature;BME280_humidity;BME280_pressure;Samples;Min_cycle;Max_cycle;Signal;HPM_P1;HPM_P2
2024/03/23 00:01:45;;;;;;;0.43;0.43;;;;;;;;;;4995026;28;20029;-65
2024/03/23 00:04:12;;;;;;;0.68;0.68;;;;;;;;;;4995839;28;20390;-65
2024/03/23 00:06:38;;;;;;;1.75;0.73;;;;;;;;;;4996198;28;20708;-65
2024/03/23 00:09:04;;;;;;;0.15;0.15;;;;;;;;;;4995668;28;20061;-65
2024/03/23 00:11:29;;;;;;;0.40;0.40;;;;;;;;;;5003394;28;20439;-65
2024/03/23 00:13:55;;;;;;;0.63;0.52;;;;;;;;;;4995781;28;20054;-65
2024/03/23 00:16:25;;;;;;;1.92;1.83;;;;;;;;;;4995542;28;20477;-65
2024/03/23 00:18:51;;;;;;;1.05;0.95;;;;;;;;;;4995906;28;20402;-65
2024/03/23 00:21:16;;;;;;;0.38;0.38;;;;;;;;;;4995701;28;20125;-65
2024/03/23 00:23:42;;;;;;;0.47;0.47;;;;;;;;;;4995097;28;20070;-65
2024/03/23 00:26:08;;;;;;;0.70;0.50;;;;;;;;;;4994943;28;20050;-65
2024/03/23 00:28:33;;;;;;;0.38;0.30;;;;;;;;;;4995192;28;20050;-65
2024/03/23 00:30:59;;;;;;;0.63;0.63;;;;;;;;;;4995338;28;20041;-65
2024/03/23 00:33:25;;;;;;;2.20;1.05;;;;;;;;;;4995298;28;20069;-65
2024/03/23 00:35:50;;;;;;;0.38;0.38;;;;;;;;;;4995389;28;20459;-65
2024/03/23 00:38:16;;;;;;;0.25;0.25;;;;;;;;;;4995559;28;20046;-65
2024/03/23 00:40:42;;;;;;;1.42;1.33;;;;;;;;;;4996085;28;20053;-65
2024/03/23 00:43:07;;;;;;;0.30;0.30;;;;;;;;;;4995728;28;20054;-65
2024/03/23 00:45:33;;;;;;;0.25;0.20;;;;;;;;;;5008517;28;20053;-65
2024/03/23 00:47:59;;;;;;;1.00;0.65;;;;;;;;;;5014222;28;20092;-65
2024/03/23 00:50:24;;;;;;;0.75;0.75;;;;;;;;;;5014405;28;20054;-65
2024/03/23 00:52:50;;;;;;;0.70;0.70;;;;;;;;;;5014947;28;20053;-64
2024/03/23 00:55:15;;;;;;;0.70;0.70;;;;;;;;;;5014290;28;20386;-64
2024/03/23 00:57:40;;;;;;;1.13;0.97;;;;;;;;;;5014546;28;20028;-64
2024/03/23 01:00:06;;;;;;;2.33;1.23;;;;;;;;;;5014449;28;20076;-64
2024/03/23 01:02:31;;;;;;;0.70;0.70;;;;;;;;;;5014379;28;20263;-64
2024/03/23 01:04:56;;;;;;;0.10;0.10;;;;;;;;;;5003546;28;20029;-64
2024/03/23 01:07:22;;;;;;;0.40;0.40;;;;;;;;;;4995348;28;20434;-64
2024/03/23 01:09:47;;;;;;;0.10;0.10;;;;;;;;;;4995059;28;20026;-64
2024/03/23 01:12:12;;;;;;;0.53;0.50;;;;;;;;;;4995664;28;20049;-64
2024/03/23 01:14:37;;;;;;;0.68;0.68;;;;;;;;;;5001290;28;20026;-64
2024/03/23 01:17:03;;;;;;;0.87;0.63;;;;;;;;;;5013228;28;20040;-64
2024/03/23 01:19:28;;;;;;;0.43;0.43;;;;;;;;;;4995056;28;20027;-64
2024/03/23 01:21:53;;;;;;;0.20;0.20;;;;;;;;;;5001979;28;20026;-64
2024/03/23 01:24:18;;;;;;;0.20;0.20;;;;;;;;;;5013876;28;20037;-64
2024/03/23 01:26:43;;;;;;;1.53;0.83;;;;;;;;;;5001839;28;20259;-64
2024/03/23 01:29:08;;;;;;;1.07;0.93;;;;;;;;;;4994792;28;20276;-64
2024/03/23 01:31:34;;;;;;;0.80;0.80;;;;;;;;;;5004905;28;20076;-64
2024/03/23 01:33:59;;;;;;;1.17;1.07;;;;;;;;;;5013903;28;20022;-64
2024/03/23 01:36:24;;;;;;;1.13;1.03;;;;;;;;;;5006019;28;20061;-64
2024/03/23 01:38:50;;;;;;;0.80;0.80;;;;;;;;;;4994705;28;20114;-64
2024/03/23 01:41:15;;;;;;;0.70;0.70;;;;;;;;;;4994716;28;20173;-64
2024/03/23 01:43:41;;;;;;;0.87;0.87;;;;;;;;;;5003262;28;20534;-64
2024/03/23 01:46:06;;;;;;;0.82;0.82;;;;;;;;;;5013152;28;20018;-64
2024/03/23 01:48:31;;;;;;;0.82;0.82;;;;;;;;;;5013519;28;20038;-64
2024/03/23 01:50:56;;;;;;;1.03;1.03;;;;;;;;;;5013456;28;20018;-64
2024/03/23 01:53:23;;;;;;;1.10;0.40;;;;;;;;;;5013150;28;20021;-64
2024/03/23 01:55:49;;;;;;;1.08;0.98;;;;;;;;;;5013562;28;20264;-64
2024/03/23 01:58:14;;;;;;;0.47;0.47;;;;;;;;;;4975280;28;20475;-64
2024/03/23 02:00:39;;;;;;;0.80;0.80;;;;;;;;;;4975035;28;20021;-64
2024/03/23 02:03:21;;;;;;;1.67;0.83;;;;;;;;;;4975135;28;20019;-65
2024/03/23 02:05:47;;;;;;;0.30;0.30;;;;;;;;;;4992105;28;20272;-65
2024/03/23 02:08:12;;;;;;;1.13;1.02;;;;;;;;;;4994166;28;20438;-65
2024/03/23 02:10:37;;;;;;;1.03;0.97;;;;;;;;;;5007585;28;20046;-65
2024/03/23 02:13:03;;;;;;;1.30;1.08;;;;;;;;;;5012052;28;20259;-65
2024/03/23 02:15:28;;;;;;;1.25;1.17;;;;;;;;;;5012904;28;20061;-65
2024/03/23 02:17:53;;;;;;;1.73;1.63;;;;;;;;;;5013112;28;20024;-65
2024/03/23 02:20:19;;;;;;;0.73;0.70;;;;;;;;;;5013344;28;20033;-65
2024/03/23 02:22:44;;;;;;;2.03;1.83;;;;;;;;;;5012544;28;20470;-65
2024/03/23 02:25:09;;;;;;;1.03;0.77;;;;;;;;;;5012929;28;20026;-65
2024/03/23 02:27:35;;;;;;;2.33;1.42;;;;;;;;;;5013052;28;20466;-65
2024/03/23 02:30:01;;;;;;;1.35;1.25;;;;;;;;;;5009980;28;20172;-65
2024/03/23 02:32:26;;;;;;;1.33;1.23;;;;;;;;;;4993929;28;20490;-65
2024/03/23 02:34:51;;;;;;;1.20;0.97;;;;;;;;;;4993885;28;20112;-65
2024/03/23 02:37:16;;;;;;;0.87;0.70;;;;;;;;;;4993910;28;20101;-65
2024/03/23 02:39:42;;;;;;;4.22;1.50;;;;;;;;;;4994856;28;20069;-65
2024/03/23 02:42:07;;;;;;;1.60;1.50;;;;;;;;;;4993789;28;20110;-65
2024/03/23 02:44:32;;;;;;;1.83;1.70;;;;;;;;;;4997965;28;20017;-65
2024/03/23 02:46:57;;;;;;;1.43;1.33;;;;;;;;;;5012868;28;20279;-65
2024/03/23 02:49:23;;;;;;;0.90;0.80;;;;;;;;;;5012421;28;20491;-65
2024/03/23 02:51:50;;;;;;;3.33;0.73;;;;;;;;;;5012995;28;20014;-65
2024/03/23 02:54:16;;;;;;;0.80;0.80;;;;;;;;;;5012751;28;20536;-65
2024/03/23 02:56:41;;;;;;;0.70;0.60;;;;;;;;;;4995348;28;20034;-65
2024/03/23 02:59:06;;;;;;;0.30;0.30;;;;;;;;;;4993679;28;20023;-65
2024/03/23 03:01:31;;;;;;;1.50;1.33;;;;;;;;;;4993654;28;20375;-65
2024/03/23 03:03:57;;;;;;;7.82;1.35;;;;;;;;;;4993622;28;20064;-65
2024/03/23 03:06:23;;;;;;;0.88;0.82;;;;;;;;;;4993459;28;20114;-65
2024/03/23 03:08:48;;;;;;;1.02;1.02;;;;;;;;;;4993778;28;20482;-65
2024/03/23 03:11:13;;;;;;;0.90;0.90;;;;;;;;;;5013161;28;20041;-65
2024/03/23 03:13:39;;;;;;;0.93;0.90;;;;;;;;;;5012668;28;20025;-65
2024/03/23 03:16:08;;;;;;;0.10;0.10;;;;;;;;;;5012233;28;20372;-65
2024/03/23 03:18:33;;;;;;;1.20;0.88;;;;;;;;;;5012507;28;20022;-65
2024/03/23 03:20:58;;;;;;;0.60;0.60;;;;;;;;;;5012505;28;20010;-65
2024/03/23 03:23:23;;;;;;;1.00;0.88;;;;;;;;;;5012494;28;20026;-64
2024/03/23 03:25:49;;;;;;;0.30;0.30;;;;;;;;;;4999568;28;20130;-64
2024/03/23 03:28:14;;;;;;;0.40;0.40;;;;;;;;;;4993641;28;20018;-64
2024/03/23 03:30:39;;;;;;;0.93;0.83;;;;;;;;;;4975844;28;20030;-64
2024/03/23 03:33:05;;;;;;;0.23;0.23;;;;;;;;;;4993368;28;20022;-64
2024/03/23 03:35:30;;;;;;;0.33;0.33;;;;;;;;;;4995686;28;20076;-64
2024/03/23 03:37:55;;;;;;;1.55;0.73;;;;;;;;;;4997258;28;20022;-64
2024/03/23 03:40:20;;;;;;;0.10;0.10;;;;;;;;;;4996919;28;20030;-64
2024/03/23 03:42:45;;;;;;;0.60;0.60;;;;;;;;;;4997170;28;20033;-64
2024/03/23 03:45:11;;;;;;;2.03;0.97;;;;;;;;;;5014969;28;20033;-64
2024/03/23 03:47:36;;;;;;;0.30;0.30;;;;;;;;;;5015791;28;20041;-64
2024/03/23 03:50:01;;;;;;;0.67;0.67;;;;;;;;;;5015397;28;20026;-64
2024/03/23 03:52:26;;;;;;;0.00;0.00;;;;;;;;;;5015801;28;20429;-63
2024/03/23 03:54:55;;;;;;;0.30;0.30;;;;;;;;;;5016357;28;20026;-64
2024/03/23 03:57:20;;;;;;;0.00;0.00;;;;;;;;;;5016326;28;20021;-64
2024/03/23 03:59:45;;;;;;;0.10;0.10;;;;;;;;;;5009717;28;20155;-64
2024/03/23 04:02:11;;;;;;;0.10;0.10;;;;;;;;;;5003187;28;20255;-64
2024/03/23 04:04:36;;;;;;;0.10;0.10;;;;;;;;;;4997907;28;20503;-64
2024/03/23 04:07:01;;;;;;;0.20;0.07;;;;;;;;;;4996467;28;20359;-64
2024/03/23 04:09:27;;;;;;;0.55;0.45;;;;;;;;;;4996282;28;20030;-64
2024/03/23 04:11:52;;;;;;;0.00;0.00;;;;;;;;;;5007075;28;20128;-64
2024/03/23 04:14:17;;;;;;;0.00;0.00;;;;;;;;;;5010656;28;20621;-64
2024/03/23 04:16:42;;;;;;;0.00;0.00;;;;;;;;;;4996329;28;20030;-64
2024/03/23 04:19:08;;;;;;;0.10;0.10;;;;;;;;;;4996206;28;20152;-64
2024/03/23 04:21:34;;;;;;;0.00;0.00;;;;;;;;;;5009554;28;20030;-64
2024/03/23 04:23:59;;;;;;;0.00;0.00;;;;;;;;;;5014855;28;20500;-64
2024/03/23 04:26:24;;;;;;;0.50;0.30;;;;;;;;;;5014618;28;20026;-64
2024/03/23 04:28:50;;;;;;;0.10;0.10;;;;;;;;;;5015194;28;20283;-64
2024/03/23 04:31:15;;;;;;;0.00;0.00;;;;;;;;;;5014125;28;20026;-64
2024/03/23 04:33:40;;;;;;;0.00;0.00;;;;;;;;;;4996376;28;20481;-65
2024/03/23 04:36:07;;;;;;;0.20;0.20;;;;;;;;;;4995890;28;20014;-65
2024/03/23 04:38:32;;;;;;;0.00;0.00;;;;;;;;;;4996122;28;20735;-65
2024/03/23 04:40:58;;;;;;;0.10;0.10;;;;;;;;;;4995858;28;20021;-65
2024/03/23 04:43:23;;;;;;;0.15;0.15;;;;;;;;;;5004118;28;20266;-65
2024/03/23 04:45:49;;;;;;;0.10;0.10;;;;;;;;;;5014140;28;20089;-65
2024/03/23 04:48:14;;;;;;;0.00;0.00;;;;;;;;;;5014229;28;20267;-65
2024/03/23 04:50:40;;;;;;;0.00;0.00;;;;;;;;;;5006057;28;20461;-65
2024/03/23 04:53:12;;;;;;;0.03;0.03;;;;;;;;;;5006904;28;20537;-65
2024/03/23 04:55:37;;;;;;;0.17;0.17;;;;;;;;;;5003825;28;20018;-65
2024/03/23 04:58:03;;;;;;;0.00;0.00;;;;;;;;;;4995449;28;20029;-65
2024/03/23 05:00:28;;;;;;;0.05;0.05;;;;;;;;;;4995698;28;20026;-65
2024/03/23 05:02:53;;;;;;;0.00;0.00;;;;;;;;;;5003394;28;20466;-65
2024/03/23 05:05:18;;;;;;;0.10;0.10;;;;;;;;;;5012569;28;20057;-65
2024/03/23 05:07:43;;;;;;;0.10;0.10;;;;;;;;;;5010325;28;20018;-65
2024/03/23 05:10:10;;;;;;;0.00;0.00;;;;;;;;;;4995564;28;20109;-65
2024/03/23 05:12:36;;;;;;;0.00;0.00;;;;;;;;;;5005558;28;20049;-65
2024/03/23 05:15:02;;;;;;;0.75;0.30;;;;;;;;;;5001586;28;20041;-65
2024/03/23 05:17:28;;;;;;;0.00;0.00;;;;;;;;;;4995407;28;20023;-65
2024/03/23 05:19:53;;;;;;;0.00;0.00;;;;;;;;;;5005892;28;20141;-65
2024/03/23 05:22:18;;;;;;;0.00;0.00;;;;;;;;;;4994999;28;20042;-65
2024/03/23 05:24:44;;;;;;;0.00;0.00;;;;;;;;;;4998864;28;20030;-65
2024/03/23 05:27:10;;;;;;;0.00;0.00;;;;;;;;;;4987351;28;20271;-65
2024/03/23 05:29:35;;;;;;;0.00;0.00;;;;;;;;;;4992959;28;20030;-65
2024/03/23 05:32:00;;;;;;;0.00;0.00;;;;;;;;;;5002099;28;20010;-65
2024/03/23 05:34:25;;;;;;;0.00;0.00;;;;;;;;;;5001644;28;20029;-65
2024/03/23 05:36:50;;;;;;;0.10;0.10;;;;;;;;;;4994345;28;20518;-65
2024/03/23 05:39:21;;;;;;;0.00;0.00;;;;;;;;;;4993270;28;20091;-65
2024/03/23 05:41:47;;;;;;;0.17;0.17;;;;;;;;;;5003677;28;20026;-65
2024/03/23 05:44:12;;;;;;;0.00;0.00;;;;;;;;;;5006849;28;20425;-65
2024/03/23 05:46:38;;;;;;;0.00;0.00;;;;;;;;;;4993765;28;20036;-65
2024/03/23 05:49:03;;;;;;;0.00;0.00;;;;;;;;;;4993765;28;20041;-65
2024/03/23 05:51:28;;;;;;;0.10;0.10;;;;;;;;;;4993827;28;20472;-65
2024/03/23 05:53:53;;;;;;;0.00;0.00;;;;;;;;;;4995678;28;20365;-65
2024/03/23 05:56:19;;;;;;;0.10;0.10;;;;;;;;;;5012488;28;20259;-65
2024/03/23 05:58:46;;;;;;;1.38;0.35;;;;;;;;;;4996478;28;20474;-65
2024/03/23 06:01:11;;;;;;;0.00;0.00;;;;;;;;;;5001225;28;20029;-65
2024/03/23 06:03:36;;;;;;;0.20;0.20;;;;;;;;;;4993559;28;20109;-65
2024/03/23 06:06:02;;;;;;;0.13;0.13;;;;;;;;;;4993099;28;20030;-65
2024/03/23 06:08:27;;;;;;;0.00;0.00;;;;;;;;;;5003157;28;20045;-65
2024/03/23 06:10:52;;;;;;;0.00;0.00;;;;;;;;;;5012829;28;20465;-65
2024/03/23 06:13:22;;;;;;;0.00;0.00;;;;;;;;;;5004424;28;20064;-65
2024/03/23 06:15:49;;;;;;;0.00;0.00;;;;;;;;;;5000764;28;20700;-65
2024/03/23 06:18:14;;;;;;;0.05;0.05;;;;;;;;;;4993354;28;20026;-65
2024/03/23 06:20:39;;;;;;;0.20;0.20;;;;;;;;;;5000413;28;20103;-65
2024/03/23 06:23:04;;;;;;;0.00;0.00;;;;;;;;;;4998096;28;20030;-65
2024/03/23 06:25:30;;;;;;;0.00;0.00;;;;;;;;;;5004951;28;20037;-65
2024/03/23 06:27:55;;;;;;;0.00;0.00;;;;;;;;;;5012412;28;20091;-65
2024/03/23 06:30:20;;;;;;;0.00;0.00;;;;;;;;;;5012998;28;20282;-65
2024/03/23 06:32:53;;;;;;;0.00;0.00;;;;;;;;;;5004707;28;20053;-65
2024/03/23 06:35:18;;;;;;;0.10;0.10;;;;;;;;;;5013211;28;20545;-65
2024/03/23 06:37:43;;;;;;;0.00;0.00;;;;;;;;;;5006116;28;20093;-65
2024/03/23 06:40:09;;;;;;;0.10;0.10;;;;;;;;;;4994221;28;20022;-65
2024/03/23 06:42:35;;;;;;;0.00;0.00;;;;;;;;;;4994122;28;20418;-65
2024/03/23 06:45:00;;;;;;;2.45;0.55;;;;;;;;;;5002698;28;20026;-65
2024/03/23 06:47:25;;;;;;;0.00;0.00;;;;;;;;;;4993997;28;20026;-65
2024/03/23 06:49:51;;;;;;;0.00;0.00;;;;;;;;;;5009337;28;20022;-65
2024/03/23 06:52:16;;;;;;;0.10;0.10;;;;;;;;;;5001299;28;20605;-65
2024/03/23 06:54:41;;;;;;;0.00;0.00;;;;;;;;;;4994761;28;20041;-65
2024/03/23 06:57:07;;;;;;;0.00;0.00;;;;;;;;;;5000357;28;20109;-65
2024/03/23 06:59:32;;;;;;;0.55;0.55;;;;;;;;;;4993864;28;20096;-65
2024/03/23 07:01:57;;;;;;;0.00;0.00;;;;;;;;;;5003733;28;20035;-65
2024/03/23 07:04:22;;;;;;;0.40;0.40;;;;;;;;;;5011264;28;20473;-65
2024/03/23 07:06:48;;;;;;;0.23;0.23;;;;;;;;;;5012446;28;20255;-65
2024/03/23 07:09:13;;;;;;;0.00;0.00;;;;;;;;;;4996623;28;20628;-66
2024/03/23 07:11:38;;;;;;;1.67;0.80;;;;;;;;;;5017373;28;20050;-66
2024/03/23 07:14:03;;;;;;;0.30;0.27;;;;;;;;;;5014769;28;20755;-65
2024/03/23 07:16:29;;;;;;;0.00;0.00;;;;;;;;;;5016431;28;20607;-76
2024/03/23 07:18:54;;;;;;;0.10;0.10;;;;;;;;;;5005674;28;20041;-62
2024/03/23 07:21:19;;;;;;;0.30;0.30;;;;;;;;;;4995447;28;20022;-62
2024/03/23 07:23:44;;;;;;;1.10;1.00;;;;;;;;;;4994324;28;20030;-62
2024/03/23 07:26:10;;;;;;;0.30;0.30;;;;;;;;;;4995867;28;20486;-62
2024/03/23 07:28:36;;;;;;;0.10;0.10;;;;;;;;;;4991908;28;20027;-62
2024/03/23 07:31:02;;;;;;;0.00;0.00;;;;;;;;;;4992184;28;20383;-62
2024/03/23 07:33:27;;;;;;;0.73;0.73;;;;;;;;;;5002447;28;20031;-62
2024/03/23 07:35:53;;;;;;;0.00;0.00;;;;;;;;;;4988857;28;20076;-62
2024/03/23 07:38:18;;;;;;;0.10;0.10;;;;;;;;;;4996998;28;20026;-62
2024/03/23 07:40:43;;;;;;;0.10;0.10;;;;;;;;;;4994627;28;20378;-63
2024/03/23 07:43:08;;;;;;;0.37;0.33;;;;;;;;;;4987685;28;20022;-63
2024/03/23 07:45:34;;;;;;;1.07;0.57;;;;;;;;;;4989107;28;20054;-63
2024/03/23 07:47:59;;;;;;;0.20;0.20;;;;;;;;;;4986775;28;20097;-63
2024/03/23 07:50:24;;;;;;;0.37;0.37;;;;;;;;;;4992804;28;20026;-62
2024/03/23 07:52:49;;;;;;;0.00;0.00;;;;;;;;;;4984389;28;20030;-62
2024/03/23 07:55:15;;;;;;;0.00;0.00;;;;;;;;;;4986160;28;20097;-62
2024/03/23 07:57:40;;;;;;;0.10;0.10;;;;;;;;;;4994716;28;20536;-62
2024/03/23 08:00:06;;;;;;;0.83;0.80;;;;;;;;;;4985691;28;20102;-62
2024/03/23 08:02:31;;;;;;;0.85;0.38;;;;;;;;;;4996078;28;20034;-63
2024/03/23 08:04:56;;;;;;;2.33;0.40;;;;;;;;;;4992687;28;20505;-62
2024/03/23 08:07:21;;;;;;;0.20;0.20;;;;;;;;;;4989566;28;20022;-62
2024/03/23 08:09:47;;;;;;;0.53;0.37;;;;;;;;;;4987017;28;20018;-76
2024/03/23 08:12:12;;;;;;;0.98;0.82;;;;;;;;;;4999006;28;20046;-75
2024/03/23 08:14:37;;;;;;;0.40;0.40;;;;;;;;;;5008295;28;20065;-76
2024/03/23 08:17:02;;;;;;;0.20;0.20;;;;;;;;;;5011866;28;20108;-76
2024/03/23 08:19:28;;;;;;;0.10;0.10;;;;;;;;;;5005838;28;20022;-76
2024/03/23 08:21:54;;;;;;;0.33;0.20;;;;;;;;;;5005561;28;20267;-76
2024/03/23 08:24:19;;;;;;;0.25;0.25;;;;;;;;;;5010894;28;20020;-76
2024/03/23 08:26:44;;;;;;;0.93;0.55;;;;;;;;;;5009714;28;20018;-76
2024/03/23 08:29:10;;;;;;;0.10;0.10;;;;;;;;;;4992394;28;20034;-75
2024/03/23 08:31:35;;;;;;;0.40;0.37;;;;;;;;;;5004986;28;20390;-76
2024/03/23 08:34:00;;;;;;;0.33;0.33;;;;;;;;;;5006989;28;20607;-76
2024/03/23 08:36:25;;;;;;;0.20;0.20;;;;;;;;;;4988578;28;20022;-76
2024/03/23 08:38:53;;;;;;;0.50;0.50;;;;;;;;;;5010569;28;20116;-76
2024/03/23 08:41:18;;;;;;;0.70;0.57;;;;;;;;;;5015857;28;20025;-76
2024/03/23 08:43:44;;;;;;;0.87;0.60;;;;;;;;;;5016179;28;20466;-75
2024/03/23 08:46:10;;;;;;;0.10;0.10;;;;;;;;;;5010331;28;20622;-62
2024/03/23 08:48:36;;;;;;;3.00;0.40;;;;;;;;;;5013589;28;20057;-62
2024/03/23 08:51:09;;;;;;;0.10;0.10;;;;;;;;;;5022289;28;20073;-62
2024/03/23 08:53:35;;;;;;;1.65;0.52;;;;;;;;;;5029338;28;20051;-62
2024/03/23 08:56:00;;;;;;;0.10;0.10;;;;;;;;;;5030398;28;20476;-62
2024/03/23 08:58:26;;;;;;;0.00;0.00;;;;;;;;;;5029874;28;20386;-62
2024/03/23 09:00:51;;;;;;;0.00;0.00;;;;;;;;;;5013516;28;20100;-62
2024/03/23 09:03:17;;;;;;;0.75;0.57;;;;;;;;;;5006593;28;20485;-62
2024/03/23 09:05:42;;;;;;;0.10;0.10;;;;;;;;;;5018044;28;20053;-62
2024/03/23 09:08:08;;;;;;;0.10;0.10;;;;;;;;;;5026222;28;20259;-62
2024/03/23 09:10:39;;;;;;;0.28;0.28;;;;;;;;;;5021091;28;20478;-62
2024/03/23 09:13:12;;;;;;;0.45;0.45;;;;;;;;;;5007514;28;20571;-64
2024/03/23 09:15:37;;;;;;;0.00;0.00;;;;;;;;;;5000103;28;20022;-63
2024/03/23 09:43:04;;;;;;;0.00;0.00;;;;;;;-139.19;100.00;56970.53;4810328;27;8179455;-74
2024/03/23 09:46:34;;;;;;;0.10;0.10;;;;;;;-139.19;100.00;56970.53;5088288;28;20033;-70
2024/03/23 09:49:59;;;;;;;0.30;0.25;;;;;;;-139.19;100.00;56970.53;5089838;28;20442;-65
2024/03/23 09:53:23;;;;;;;0.10;0.10;;;;;;;-139.19;100.00;56970.53;5086619;28;20028;-65
2024/03/23 09:56:47;;;;;;;0.22;0.22;;;;;;;-139.19;100.00;56970.53;5090086;28;20509;-65
2024/03/23 10:00:12;;;;;;;0.00;0.00;;;;;;;-139.19;100.00;56970.53;5083326;28;20139;-65
2024/03/23 10:03:42;;;;;;;0.40;0.40;;;;;;;-139.19;100.00;56970.53;5086270;28;20435;-65
2024/03/23 10:07:13;;;;;;;2.33;0.60;;;;;;;-139.19;100.00;56970.53;5087261;28;20032;-65
2024/03/23 10:10:36;;;;;;;0.60;0.60;;;;;;;-139.19;100.00;56970.53;5070253;28;20032;-65
2024/03/23 10:14:00;;;;;;;0.28;0.28;;;;;;;-139.19;100.00;56970.53;5078401;28;20400;-65
2024/03/23 10:17:24;;;;;;;0.00;0.00;;;;;;;-139.19;100.00;56970.53;5069817;28;20036;-65
2024/03/23 10:20:51;;;;;;;0.25;0.25;;;;;;;-139.19;100.00;56970.53;5068653;28;20054;-65
2024/03/23 10:24:15;;;;;;;0.08;0.08;;;;;;;-139.19;100.00;56970.53;5076452;28;20032;-63
2024/03/23 10:27:39;;;;;;;0.13;0.10;;;;;;;-139.19;100.00;56970.53;5080499;28;20028;-62
2024/03/23 10:31:11;;;;;;;0.90;0.70;;;;;;;-139.19;100.00;56970.53;5060379;28;20025;-62
2024/03/23 10:34:35;;;;;;;0.08;0.08;;;;;;;-139.19;100.00;56970.53;5073671;28;20029;-62
2024/03/23 10:38:01;;;;;;;0.30;0.30;;;;;;;-139.19;100.00;56970.53;5068938;28;20036;-62
2024/03/23 10:41:27;;;;;;;0.20;0.20;;;;;;;-139.19;100.00;56970.53;5057366;28;20041;-62
2024/03/23 10:44:53;;;;;;;0.10;0.10;;;;;;;-139.19;100.00;56970.53;5077903;28;20039;-62
2024/03/23 10:48:17;;;;;;;0.50;0.40;;;;;;;-139.19;100.00;56970.53;5080866;28;20069;-62
2024/03/23 10:51:41;;;;;;;0.10;0.08;;;;;;;-139.19;100.00;56970.53;5083654;28;20115;-62
2024/03/23 10:55:06;;;;;;;0.13;0.13;;;;;;;-139.19;100.00;56970.53;5071000;28;20036;-62
2024/03/23 10:58:44;;;;;;;0.00;0.00;;;;;;;-139.19;100.00;56970.53;5061521;28;20036;-62
2024/03/23 11:02:21;;;;;;;0.40;0.35;;;;;;;-139.19;100.00;56970.53;5076001;28;20103;-62
2024/03/23 11:05:48;;;;;;;0.98;0.65;;;;;;;-139.19;100.00;56970.53;5070626;28;20480;-62
2024/03/23 11:09:41;;;;;;;0.00;0.00;;;;;;;-139.19;100.00;56970.53;5057396;28;20035;-62
2024/03/23 11:13:29;;;;;;;0.00;0.00;;;;;;;-139.19;100.00;56970.53;5066337;28;20071;-62
2024/03/23 11:17:09;;;;;;;0.10;0.10;;;;;;;-139.19;100.00;56970.53;5074562;28;20270;-62
2024/03/23 11:20:36;;;;;;;0.00;0.00;;;;;;;-139.19;100.00;56970.53;5068084;28;20046;-62
2024/03/23 11:24:15;;;;;;;0.10;0.10;;;;;;;-139.19;100.00;56970.53;5069604;28;20064;-62
2024/03/23 11:27:39;;;;;;;0.10;0.10;;;;;;;-139.19;100.00;56970.53;5073856;28;20051;-62
2024/03/23 11:31:22;;;;;;;1.55;0.35;;;;;;;-139.19;100.00;56970.53;5068368;28;20033;-62
2024/03/23 11:34:46;;;;;;;1.25;0.30;;;;;;;-139.19;100.00;56970.53;5073817;28;20798;-62
2024/03/23 11:38:13;;;;;;;0.65;0.38;;;;;;;-139.19;100.00;56970.53;5065282;28;20040;-62
2024/03/23 11:41:44;;;;;;;0.22;0.22;;;;;;;-139.19;100.00;56970.53;5060117;28;20053;-62
2024/03/23 11:45:16;;;;;;;0.03;0.03;;;;;;;-139.19;100.00;56970.53;5074500;28;20020;-61
2024/03/23 11:48:39;;;;;;;0.00;0.00;;;;;;;-139.19;100.00;56970.53;5072976;28;20043;-61
2024/03/23 11:52:04;;;;;;;1.05;0.60;;;;;;;-139.19;100.00;56970.53;5055480;28;20036;-61
2024/03/23 11:55:27;;;;;;;0.00;0.00;;;;;;;-139.19;100.00;56970.53;5065092;28;20425;-62
2024/03/23 11:58:53;;;;;;;0.00;0.00;;;;;;;-139.19;100.00;56970.53;5061047;28;20036;-62
2024/03/23 12:02:18;;;;;;;0.03;0.03;;;;;;;-139.19;100.00;56970.53;5071856;28;20476;-62
2024/03/23 12:05:47;;;;;;;0.00;0.00;;;;;;;-139.19;100.00;56970.53;5063096;28;20551;-62
2024/03/23 12:09:14;;;;;;;1.20;0.25;;;;;;;-139.19;100.00;56970.53;5063105;28;20074;-61
2024/03/23 12:12:37;;;;;;;0.00;0.00;;;;;;;-139.19;100.00;56970.53;5070389;28;20051;-62
2024/03/23 12:16:13;;;;;;;0.10;0.10;;;;;;;-139.19;100.00;56970.53;5079645;28;20541;-62
2024/03/23 12:19:38;;;;;;;0.00;0.00;;;;;;;-139.19;100.00;56970.53;5061629;28;20027;-62
2024/03/23 12:23:21;;;;;;;0.90;0.43;;;;;;;-139.19;100.00;56970.53;5070111;28;20029;-62
2024/03/23 12:26:50;;;;;;;0.00;0.00;;;;;;;-139.19;100.00;56970.53;5065600;28;20036;-62
2024/03/23 12:30:14;;;;;;;0.00;0.00;;;;;;;-139.19;100.00;56970.53;5073479;28;20051;-61
2024/03/23 12:33:37;;;;;;;0.10;0.10;;;;;;;-139.19;100.00;56970.53;5064688;28;20068;-62
2024/03/23 12:37:01;;;;;;;0.00;0.00;;;;;;;-139.19;100.00;56970.53;5073471;28;20036;-62
2024/03/23 12:40:27;;;;;;;0.00;0.00;;;;;;;-139.19;100.00;56970.53;5061662;28;20024;-62
2024/03/23 12:43:51;;;;;;;0.00;0.00;;;;;;;-139.19;100.00;56970.53;5054002;28;20037;-62
2024/03/23 12:47:15;;;;;;;0.10;0.10;;;;;;;-139.19;100.00;56970.53;5063718;28;20492;-61
2024/03/23 12:50:39;;;;;;;0.00;0.00;;;;;;;-139.19;100.00;56970.53;5070315;28;20048;-62
2024/03/23 12:54:03;;;;;;;0.00;0.00;;;;;;;-139.19;100.00;56970.53;5068329;28;20036;-61
2024/03/23 12:57:27;;;;;;;0.00;0.00;;;;;;;-139.19;100.00;56970.53;5071738;28;20031;-62
2024/03/23 13:00:51;;;;;;;0.00;0.00;;;;;;;-139.19;100.00;56970.53;5063229;28;20025;-62
2024/03/23 13:04:16;;;;;;;0.00;0.00;;;;;;;-139.19;100.00;56970.53;5057991;28;20488;-61
2024/03/23 13:07:40;;;;;;;0.00;0.00;;;;;;;-139.19;100.00;56970.53;5073104;28;20028;-61
2024/03/23 13:11:04;;;;;;;0.65;0.35;;;;;;;-139.19;100.00;56970.53;5071916;28;20025;-60
2024/03/23 13:14:28;;;;;;;0.00;0.00;;;;;;;-139.19;100.00;56970.53;5065564;28;20032;-61
2024/03/23 13:17:53;;;;;;;0.00;0.00;;;;;;;-139.19;100.00;56970.53;5059925;28;20033;-60
2024/03/23 13:21:17;;;;;;;0.00;0.00;;;;;;;-139.19;100.00;56970.53;5066055;28;20048;-61
2024/03/23 13:24:44;;;;;;;0.00;0.00;;;;;;;-139.19;100.00;56970.53;5068790;28;20040;-60
2024/03/23 13:28:09;;;;;;;0.10;0.10;;;;;;;-139.19;100.00;56970.53;5071268;28;20032;-60
2024/03/23 13:31:34;;;;;;;0.00;0.00;;;;;;;-139.19;100.00;56970.53;5060409;28;20473;-60
2024/03/23 13:34:58;;;;;;;0.00;0.00;;;;;;;-139.19;100.00;56970.53;5064703;28;20033;-60
2024/03/23 13:38:22;;;;;;;0.00;0.00;;;;;;;-139.19;100.00;56970.53;5077382;28;20064;-60
2024/03/23 13:41:49;;;;;;;0.10;0.10;;;;;;;-139.19;100.00;56970.53;5057250;28;20139;-60
2024/03/23 13:45:13;;;;;;;7.68;0.65;;;;;;;-139.19;100.00;56970.53;5064164;28;20040;-60
2024/03/23 13:48:37;;;;;;;0.00;0.00;;;;;;;-139.19;100.00;56970.53;5069451;28;20039;-60
2024/03/23 13:52:02;;;;;;;0.00;0.00;;;;;;;-139.19;100.00;56970.53;5063758;28;20071;-60
2024/03/23 13:55:26;;;;;;;0.00;0.00;;;;;;;-139.19;100.00;56970.53;5067005;28;20028;-64
2024/03/23 13:58:50;;;;;;;0.00;0.00;;;;;;;-139.19;100.00;56970.53;5069755;28;20037;-64
2024/03/23 14:02:14;;;;;;;0.00;0.00;;;;;;;-139.19;100.00;56970.53;5070307;28;20482;-65
2024/03/23 14:05:38;;;;;;;0.17;0.17;;;;;;;-139.19;100.00;56970.53;5072376;28;20052;-65
2024/03/23 14:09:09;;;;;;;0.10;0.10;;;;;;;-139.19;100.00;56970.53;5071806;28;20036;-66
2024/03/23 14:12:33;;;;;;;1.13;0.22;;;;;;;-139.19;100.00;56970.53;5070780;28;20071;-65
2024/03/23 14:15:57;;;;;;;0.35;0.35;;;;;;;-139.19;100.00;56970.53;5072564;28;20025;-65
2024/03/23 14:19:21;;;;;;;0.00;0.00;;;;;;;-139.19;100.00;56970.53;5063563;28;20162;-65
2024/03/23 14:22:45;;;;;;;0.10;0.10;;;;;;;-139.19;100.00;56970.53;5061131;28;20511;-64
2024/03/23 14:26:09;;;;;;;0.20;0.20;;;;;;;-139.19;100.00;56970.53;5065970;28;20117;-66
2024/03/23 14:29:34;;;;;;;0.00;0.00;;;;;;;-139.19;100.00;56970.53;5068252;28;20441;-65
2024/03/23 14:32:58;;;;;;;0.10;0.10;;;;;;;-139.19;100.00;56970.53;5069875;28;20083;-65
2024/03/23 14:36:22;;;;;;;0.10;0.10;;;;;;;-139.19;100.00;56970.53;5066290;28;20473;-65
2024/03/23 14:39:48;;;;;;;0.00;0.00;;;;;;;-139.19;100.00;56970.53;5071459;28;20130;-65
2024/03/23 14:43:14;;;;;;;0.00;0.00;;;;;;;-139.19;100.00;56970.53;5061539;28;20090;-65
2024/03/23 14:46:58;;;;;;;0.00;0.00;;;;;;;-139.19;100.00;56970.53;5071453;28;20103;-64
2024/03/23 14:50:22;;;;;;;0.00;0.00;;;;;;;-139.19;100.00;56970.53;5075466;28;20060;-64
2024/03/23 14:53:46;;;;;;;1.67;0.38;;;;;;;-139.19;100.00;56970.53;5072166;28;20036;-65
2024/03/23 14:57:10;;;;;;;0.10;0.10;;;;;;;-139.19;100.00;56970.53;5072189;28;20032;-65
2024/03/23 15:00:34;;;;;;;0.00;0.00;;;;;;;-139.19;100.00;56970.53;5072921;28;20473;-65
2024/03/23 15:03:58;;;;;;;0.08;0.08;;;;;;;-139.19;100.00;56970.53;5068916;28;20066;-60
2024/03/23 15:07:22;;;;;;;0.08;0.08;;;;;;;-139.19;100.00;56970.53;5075694;28;20060;-61
2024/03/23 15:10:46;;;;;;;0.00;0.00;;;;;;;-139.19;100.00;56970.53;5072015;28;20111;-60
2024/03/23 15:14:10;;;;;;;0.00;0.00;;;;;;;-139.19;100.00;56970.53;5056645;28;20125;-60
2024/03/23 15:17:36;;;;;;;0.03;0.03;;;;;;;-139.19;100.00;56970.53;5059531;28;20028;-60
2024/03/23 15:21:11;;;;;;;0.00;0.00;;;;;;;-139.19;100.00;56970.53;5061487;28;20051;-60